Time;durP1;ratioP1;P1;durP2;ratioP2;P2;SDS_P1;SDS_P2;PMS_P1;PMS_P2;Temp;Humidity;BMP_temperature;BMP_pressure;BME280_temperature;BME280_humidity;BME280_pressure;Samples;Min_cycle;Max_cycle;Signal;HPM_P1;HPM_P2
2022/07/12 00:02:11;;;;;;;3.77;1.90;;;;;;;11.12;91.63;97900.36;1817364;78;21183;-58
2022/07/12 00:04:38;;;;;;;3.47;1.90;;;;;;;11.11;91.78;97896.11;1817456;78;21426;-59
2022/07/12 00:07:04;;;;;;;3.22;2.05;;;;;;;11.10;92.04;97897.19;1817710;78;20946;-58
2022/07/12 00:09:31;;;;;;;3.75;2.30;;;;;;;11.08;92.24;97882.75;1817351;78;20910;-58
2022/07/12 00:11:58;;;;;;;5.92;2.27;;;;;;;11.10;92.47;97885.13;1816352;78;20915;-59
2022/07/12 00:14:25;;;;;;;6.28;2.08;;;;;;;11.07;93.05;97879.80;1817653;78;21107;-59
2022/07/12 00:16:52;;;;;;;3.00;1.77;;;;;;;11.06;92.84;97877.43;1815776;78;20855;-58
2022/07/12 00:19:18;;;;;;;3.80;1.70;;;;;;;11.05;93.11;97877.97;1815809;79;21367;-58
2022/07/12 00:21:45;;;;;;;4.53;2.60;;;;;;;11.06;93.30;97878.77;1817500;78;21430;-58
2022/07/12 00:24:11;;;;;;;6.30;2.15;;;;;;;11.08;93.47;97885.97;1815956;78;20837;-59
2022/07/12 00:26:38;;;;;;;4.80;2.45;;;;;;;11.09;93.80;97887.57;1817865;78;21176;-58
2022/07/12 00:29:05;;;;;;;4.50;2.55;;;;;;;11.10;93.73;97889.14;1816835;78;20910;-58
2022/07/12 00:31:31;;;;;;;3.80;2.42;;;;;;;11.10;94.06;97883.78;1817698;78;20883;-59
2022/07/12 00:33:58;;;;;;;3.50;2.60;;;;;;;11.08;94.32;97884.63;1819060;78;21394;-58
2022/07/12 00:36:24;;;;;;;4.60;2.80;;;;;;;11.09;94.17;97880.87;1815812;79;20958;-58
2022/07/12 00:38:51;;;;;;;2.65;2.45;;;;;;;11.09;94.20;97884.89;1818045;78;21214;-58
2022/07/12 00:41:17;;;;;;;3.75;2.42;;;;;;;11.10;94.51;97878.42;1819501;78;20955;-58
2022/07/12 00:43:44;;;;;;;4.20;2.55;;;;;;;11.11;94.53;97879.48;1817435;78;20900;-58
2022/07/12 00:46:10;;;;;;;6.10;2.40;;;;;;;11.13;94.55;97879.98;1815978;78;21371;-58
2022/07/12 00:48:38;;;;;;;4.17;2.30;;;;;;;11.16;94.62;97878.05;1818040;78;20902;-59
2022/07/12 00:51:05;;;;;;;5.00;2.40;;;;;;;11.19;94.56;97872.65;1819250;78;22067;-59
2022/07/12 00:53:31;;;;;;;6.37;2.62;;;;;;;11.20;94.54;97869.66;1817710;78;21379;-59
2022/07/12 00:55:58;;;;;;;2.47;1.82;;;;;;;11.23;94.47;97868.28;1820599;78;20915;-59
2022/07/12 00:58:25;;;;;;;3.83;1.80;;;;;;;11.21;94.43;97860.51;1818184;78;20926;-59
2022/07/12 01:00:52;;;;;;;3.37;2.12;;;;;;;11.19;94.41;97857.91;1817301;78;20902;-59
2022/07/12 01:03:19;;;;;;;4.53;2.30;;;;;;;11.18;94.52;97865.69;1817057;78;21426;-59
2022/07/12 01:05:45;;;;;;;2.67;1.80;;;;;;;11.20;94.50;97858.14;1815790;79;20912;-59
2022/07/12 01:08:12;;;;;;;5.50;2.20;;;;;;;11.21;94.45;97851.70;1815715;79;20824;-59
2022/07/12 01:10:40;;;;;;;3.35;1.90;;;;;;;11.23;94.36;97858.89;1815658;79;20923;-59
2022/07/12 01:13:07;;;;;;;3.05;2.10;;;;;;;11.23;94.35;97861.03;1818084;78;21441;-59
2022/07/12 01:15:34;;;;;;;5.53;2.00;;;;;;;11.23;94.31;97857.55;1820017;78;21105;-59
2022/07/12 01:18:00;;;;;;;3.22;1.90;;;;;;;11.22;94.32;97863.99;1819217;78;20824;-59
2022/07/12 01:20:27;;;;;;;2.90;2.00;;;;;;;11.19;94.37;97854.66;1819602;78;20899;-59
2022/07/12 01:22:57;;;;;;;2.52;1.82;;;;;;;11.17;94.35;97853.36;1819952;78;20879;-59
2022/07/12 01:25:23;;;;;;;4.20;2.30;;;;;;;11.17;94.46;97846.66;1817227;78;20997;-59
2022/07/12 01:27:50;;;;;;;4.83;2.70;;;;;;;11.15;94.48;97843.48;1815724;78;21104;-59
2022/07/12 01:30:17;;;;;;;4.12;2.58;;;;;;;11.11;94.56;97836.59;1816672;78;20867;-59
2022/07/12 01:32:44;;;;;;;3.20;2.02;;;;;;;11.09;94.59;97836.11;1820229;78;20947;-59
2022/07/12 01:35:11;;;;;;;4.75;2.47;;;;;;;11.10;94.65;97839.02;1818419;78;20903;-59
2022/07/12 01:37:40;;;;;;;3.05;2.55;;;;;;;11.11;94.65;97844.64;1815877;79;20872;-59
2022/07/12 01:40:12;;;;;;;3.50;2.50;;;;;;;11.13;94.70;97838.43;1818571;78;21048;-59
2022/07/12 01:42:39;;;;;;;4.50;2.85;;;;;;;11.14;94.75;97837.89;1817161;78;21368;-59
2022/07/12 01:45:07;;;;;;;4.28;2.85;;;;;;;11.10;94.78;97832.86;1816439;78;20907;-59
2022/07/12 01:47:34;;;;;;;4.25;3.15;;;;;;;11.08;95.01;97833.70;1819149;78;20958;-59
2022/07/12 01:50:02;;;;;;;4.78;3.30;;;;;;;11.06;95.00;97831.33;1819593;78;20855;-59
2022/07/12 01:52:29;;;;;;;4.08;3.10;;;;;;;11.06;95.17;97828.65;1816911;78;21078;-59
2022/07/12 01:54:55;;;;;;;4.40;3.05;;;;;;;11.05;95.31;97828.38;1815950;79;20911;-60
2022/07/12 01:57:21;;;;;;;3.60;3.12;;;;;;;11.04;95.59;97824.67;1792194;79;20831;-59
2022/07/12 01:59:48;;;;;;;5.33;3.62;;;;;;;11.02;95.80;97834.36;1815860;78;21422;-59
2022/07/12 02:02:15;;;;;;;5.60;3.47;;;;;;;11.05;96.00;97830.27;1815825;78;20927;-59
2022/07/12 02:04:42;;;;;;;6.28;3.10;;;;;;;11.03;96.26;97826.55;1818062;78;21279;-60
2022/07/12 02:07:08;;;;;;;5.78;3.30;;;;;;;11.05;96.26;97824.36;1818417;78;20891;-59
2022/07/12 02:09:35;;;;;;;4.15;3.65;;;;;;;11.07;96.41;97821.41;1815993;79;20852;-59
2022/07/12 02:12:03;;;;;;;7.37;3.75;;;;;;;11.08;96.65;97817.62;1815965;78;20852;-59
2022/07/12 02:14:29;;;;;;;6.35;3.47;;;;;;;11.08;96.76;97820.30;1815989;79;20906;-58
2022/07/12 02:16:56;;;;;;;6.50;3.02;;;;;;;11.11;97.00;97821.05;1816875;78;21116;-58
2022/07/12 02:19:23;;;;;;;4.20;3.55;;;;;;;11.12;97.01;97818.61;1815881;79;20958;-58
2022/07/12 02:21:49;;;;;;;4.65;3.35;;;;;;;11.15;97.40;97818.82;1816843;78;20974;-58
2022/07/12 02:24:16;;;;;;;5.33;3.10;;;;;;;11.14;97.30;97814.53;1820432;78;20943;-58
2022/07/12 02:26:43;;;;;;;5.97;3.20;;;;;;;11.15;97.53;97818.02;1815972;78;20868;-59
2022/07/12 02:29:10;;;;;;;3.92;3.52;;;;;;;11.17;97.49;97814.49;1817069;78;21970;-58
2022/07/12 02:31:37;;;;;;;10.25;3.77;;;;;;;11.20;97.57;97816.58;1817410;78;20965;-58
2022/07/12 02:34:10;;;;;;;4.90;3.30;;;;;;;11.21;97.70;97815.50;1818820;78;20910;-59
2022/07/12 02:36:37;;;;;;;4.53;3.65;;;;;;;11.20;97.93;97827.31;1818750;78;20911;-59
2022/07/12 02:39:04;;;;;;;6.78;4.45;;;;;;;11.20;98.03;97821.95;1817032;78;20831;-59
2022/07/12 02:41:31;;;;;;;7.58;3.80;;;;;;;11.22;98.12;97821.09;1817282;78;21232;-59
2022/07/12 02:43:58;;;;;;;4.28;3.30;;;;;;;11.25;98.20;97823.19;1816761;78;21426;-59
2022/07/12 02:46:24;;;;;;;4.83;3.62;;;;;;;11.28;98.25;97815.91;1816889;78;20997;-59
2022/07/12 02:48:52;;;;;;;6.50;3.70;;;;;;;11.28;98.24;97818.02;1820567;78;20998;-59
2022/07/12 02:51:18;;;;;;;4.85;3.45;;;;;;;11.29;98.14;97824.17;1819944;78;20894;-59
2022/07/12 02:53:45;;;;;;;6.33;3.20;;;;;;;11.31;98.20;97817.96;1819802;78;21083;-58
2022/07/12 02:56:11;;;;;;;5.37;3.42;;;;;;;11.35;98.08;97817.64;1819991;78;20851;-59
2022/07/12 02:58:38;;;;;;;4.50;3.50;;;;;;;11.38;98.23;97822.38;1819398;79;20859;-59
2022/07/12 03:01:04;;;;;;;6.67;3.40;;;;;;;11.41;98.05;97815.09;1818906;78;21604;-59
2022/07/12 03:03:31;;;;;;;4.50;3.00;;;;;;;11.45;97.94;97809.36;1817489;78;21382;-60
2022/07/12 03:05:58;;;;;;;3.90;3.10;;;;;;;11.45;97.89;97812.05;1816109;78;21094;-59
2022/07/12 03:08:24;;;;;;;7.30;3.42;;;;;;;11.45;97.79;97818.20;1815834;78;20911;-59
2022/07/12 03:10:51;;;;;;;3.98;3.20;;;;;;;11.44;97.82;97817.17;1817438;78;20828;-60
2022/07/12 03:13:18;;;;;;;3.70;2.90;;;;;;;11.45;97.83;97803.45;1819372;78;21394;-59
2022/07/12 03:15:49;;;;;;;4.80;2.90;;;;;;;11.48;97.77;97794.82;1815996;79;20958;-59
2022/07/12 03:18:13;;;;;;;6.20;3.50;;;;;;;11.50;97.66;97805.23;1818026;78;21115;-59
2022/07/12 03:20:40;;;;;;;5.30;3.27;;;;;;;11.47;97.71;97804.52;1819031;78;20871;-59
2022/07/12 03:23:06;;;;;;;4.67;2.83;;;;;;;11.45;97.77;97802.12;1818468;78;20903;-59
2022/07/12 03:25:33;;;;;;;5.90;2.87;;;;;;;11.47;97.76;97797.81;1818307;78;20880;-59
2022/07/12 03:27:59;;;;;;;3.87;2.92;;;;;;;11.48;97.74;97800.73;1819584;78;20907;-59
2022/07/12 03:30:27;;;;;;;4.47;3.27;;;;;;;11.49;97.80;97805.01;1820113;78;21244;-59
2022/07/12 03:32:53;;;;;;;4.25;2.92;;;;;;;11.51;97.78;97803.62;1819054;78;21081;-59
2022/07/12 03:35:20;;;;;;;4.42;3.02;;;;;;;11.55;97.68;97803.25;1818916;78;20867;-59
2022/07/12 03:37:49;;;;;;;5.97;2.95;;;;;;;11.56;97.54;97807.51;1819302;78;20894;-60
2022/07/12 03:40:18;;;;;;;4.35;3.50;;;;;;;11.59;97.56;97802.89;1819109;78;20990;-58
2022/07/12 03:42:46;;;;;;;7.67;3.35;;;;;;;11.59;97.39;97799.41;1816606;78;21131;-58
2022/07/12 03:45:13;;;;;;;4.53;2.95;;;;;;;11.61;97.32;97801.27;1816832;78;20824;-59
2022/07/12 03:47:41;;;;;;;4.42;2.50;;;;;;;11.63;97.22;97809.23;1818323;78;20952;-59
2022/07/12 03:50:12;;;;;;;4.85;2.80;;;;;;;11.62;97.15;97809.55;1821466;78;20951;-59
2022/07/12 03:52:41;;;;;;;6.72;2.85;;;;;;;11.62;97.23;97810.34;1815795;79;21434;-59
2022/07/12 03:55:09;;;;;;;5.25;2.75;;;;;;;11.66;97.14;97815.89;1817363;78;21423;-59
2022/07/12 03:57:37;;;;;;;3.35;2.65;;;;;;;11.71;97.04;97808.31;1819945;78;20860;-59
2022/07/12 04:00:13;;;;;;;5.10;2.60;;;;;;;11.75;96.87;97816.02;1819481;78;21040;-59
2022/07/12 04:02:41;;;;;;;3.22;2.83;;;;;;;11.79;96.59;97801.70;1818891;78;20855;-59
2022/07/12 04:05:09;;;;;;;3.58;2.70;;;;;;;11.82;96.54;97803.79;1815968;78;21395;-59
2022/07/12 04:07:36;;;;;;;5.00;2.45;;;;;;;11.85;96.43;97807.19;1817573;78;21111;-59
2022/07/12 04:10:05;;;;;;;4.15;2.42;;;;;;;11.90;96.34;97810.30;1817269;78;21009;-59
2022/07/12 04:12:32;;;;;;;4.95;2.70;;;;;;;11.96;96.10;97811.79;1817694;78;20906;-59
2022/07/12 04:15:00;;;;;;;3.15;2.60;;;;;;;11.99;95.87;97805.80;1820247;78;20891;-60
2022/07/12 04:17:26;;;;;;;4.78;2.70;;;;;;;12.04;95.77;97807.83;1816841;78;20982;-59
2022/07/12 04:19:53;;;;;;;3.65;2.40;;;;;;;12.09;95.43;97811.74;1818297;78;21403;-59
2022/07/12 04:22:19;;;;;;;3.33;2.50;;;;;;;12.18;95.25;97809.91;1818801;78;20943;-60
2022/07/12 04:24:46;;;;;;;3.02;2.72;;;;;;;12.30;94.97;97803.45;1817106;78;20871;-59
2022/07/12 04:27:12;;;;;;;3.40;2.52;;;;;;;12.43;94.71;97802.35;1817242;78;20923;-59
2022/07/12 04:29:39;;;;;;;3.75;2.58;;;;;;;12.59;94.18;97802.21;1817875;78;20875;-59
2022/07/12 04:32:07;;;;;;;4.37;2.52;;;;;;;12.73;93.25;97810.98;1817786;78;21299;-59
2022/07/12 04:34:33;;;;;;;2.75;2.22;;;;;;;12.84;92.39;97805.58;1819858;78;20954;-59
2022/07/12 04:37:00;;;;;;;4.33;2.77;;;;;;;12.93;92.12;97803.17;1818838;78;20852;-60
2022/07/12 04:39:26;;;;;;;2.80;2.40;;;;;;;13.02;91.50;97804.58;1816285;78;21450;-59
2022/07/12 04:41:53;;;;;;;6.15;2.40;;;;;;;13.11;91.14;97805.44;1815741;79;20848;-59
2022/07/12 04:44:19;;;;;;;4.22;2.37;;;;;;;13.18;90.74;97800.40;1815870;79;21145;-62
2022/07/12 04:46:46;;;;;;;4.22;2.45;;;;;;;13.23;90.57;97794.88;1816700;78;20904;-59
2022/07/12 04:49:12;;;;;;;5.50;2.70;;;;;;;13.28;90.18;97799.33;1816737;78;20875;-59
2022/07/12 04:51:39;;;;;;;4.97;2.75;;;;;;;13.31;89.35;97808.09;1819643;78;20906;-59
2022/07/12 04:54:05;;;;;;;5.10;2.27;;;;;;;13.32;89.37;97813.18;1819558;78;20906;-60
2022/07/12 04:56:32;;;;;;;3.45;2.58;;;;;;;13.38;88.45;97810.58;1817147;78;21386;-63
2022/07/12 04:58:58;;;;;;;3.27;2.58;;;;;;;13.32;88.18;97807.80;1817289;78;20852;-62
2022/07/12 05:01:25;;;;;;;3.95;2.70;;;;;;;13.24;88.20;97813.93;1815723;78;20938;-63
2022/07/12 05:03:51;;;;;;;2.87;2.35;;;;;;;13.21;88.49;97822.64;1815843;79;20895;-63
2022/07/12 05:06:18;;;;;;;5.25;2.47;;;;;;;13.25;88.46;97821.45;1818672;78;20958;-62
2022/07/12 05:08:44;;;;;;;6.78;2.85;;;;;;;13.23;88.40;97819.09;1815786;78;21230;-62
2022/07/12 05:11:11;;;;;;;4.50;2.80;;;;;;;13.23;88.65;97812.36;1818915;78;20899;-63
2022/07/12 05:13:37;;;;;;;4.00;2.30;;;;;;;13.31;88.61;97816.96;1817889;78;20898;-62
2022/07/12 05:16:08;;;;;;;2.98;1.82;;;;;;;13.38;88.54;97817.84;1816450;78;20970;-64
2022/07/12 05:18:34;;;;;;;3.27;2.37;;;;;;;13.47;88.35;97826.19;1816167;79;21521;-62
2022/07/12 05:21:01;;;;;;;4.65;2.52;;;;;;;13.62;87.98;97829.00;1815797;78;21154;-63
2022/07/12 05:23:28;;;;;;;3.95;2.90;;;;;;;13.69;87.63;97828.78;1815590;79;20910;-63
2022/07/12 05:25:55;;;;;;;3.72;2.55;;;;;;;13.75;86.48;97829.98;1817305;78;20899;-62
2022/07/12 05:28:22;;;;;;;7.92;3.00;;;;;;;13.71;86.58;97833.30;1818261;78;20895;-62
2022/07/12 05:30:50;;;;;;;3.72;2.60;;;;;;;13.67;86.15;97831.00;1819473;78;36233;-63
2022/07/12 05:33:17;;;;;;;5.47;3.15;;;;;;;13.62;86.55;97832.48;1818053;77;21101;-60
2022/07/12 05:35:43;;;;;;;3.37;2.92;;;;;;;13.62;86.34;97832.48;1834349;77;20920;-65
2022/07/12 05:38:10;;;;;;;5.05;3.20;;;;;;;13.61;86.55;97828.20;1829606;77;20996;-62
2022/07/12 05:40:36;;;;;;;5.00;3.05;;;;;;;13.62;86.30;97828.45;1844043;77;20979;-60
2022/07/12 05:43:03;;;;;;;3.30;2.77;;;;;;;13.64;86.12;97826.23;1831951;77;21345;-61
2022/07/12 05:45:29;;;;;;;4.97;2.70;;;;;;;13.71;86.02;97826.56;1766660;79;21985;-62
2022/07/12 05:47:56;;;;;;;6.92;2.80;;;;;;;13.82;86.09;97827.62;1848893;77;21521;-62
2022/07/12 05:50:22;;;;;;;7.17;2.58;;;;;;;13.99;85.77;97814.19;1844785;77;20976;-63
2022/07/12 05:55:35;;;;;;;3.33;2.58;;;;;;;14.37;84.96;97825.91;1844712;77;20975;-62
2022/07/12 05:58:02;;;;;;;3.00;2.70;;;;;;;14.45;83.30;97817.59;1847696;77;21447;-62
2022/07/12 06:00:29;;;;;;;3.15;2.58;;;;;;;14.48;83.44;97815.06;1841421;77;20907;-62
2022/07/12 06:02:55;;;;;;;3.98;2.60;;;;;;;14.58;82.91;97824.14;1776239;80;20945;-61
2022/07/12 06:05:22;;;;;;;3.95;2.60;;;;;;;14.69;82.36;97815.98;1771002;80;20912;-60
2022/07/12 06:07:49;;;;;;;3.95;2.30;;;;;;;14.70;81.59;97817.55;1770408;80;20947;-60
2022/07/12 06:10:16;;;;;;;3.50;2.40;;;;;;;14.77;81.74;97824.59;1810392;79;21053;-61
2022/07/12 06:12:43;;;;;;;4.25;2.30;;;;;;;14.88;81.61;97800.78;1830881;77;21364;-62
2022/07/12 06:15:10;;;;;;;2.50;2.25;;;;;;;14.95;80.39;97809.16;1774585;80;21044;-62
2022/07/12 06:17:38;;;;;;;4.50;2.30;;;;;;;14.98;80.61;97809.30;1763889;80;20883;-61
2022/07/12 06:20:06;;;;;;;3.25;2.10;;;;;;;15.01;79.66;97815.41;1822218;77;20986;-63
2022/07/12 06:22:33;;;;;;;3.55;2.00;;;;;;;14.96;79.75;97814.23;1759003;81;21761;-61
2022/07/12 06:24:59;;;;;;;4.62;1.92;;;;;;;15.03;80.60;97812.38;1766832;80;21443;-61
2022/07/12 06:27:26;;;;;;;2.80;2.22;;;;;;;15.16;80.80;97814.09;1757218;80;20974;-62
2022/07/12 06:29:53;;;;;;;2.90;2.10;;;;;;;15.32;79.92;97812.98;1763539;80;20898;-63
2022/07/12 06:32:20;;;;;;;2.95;1.95;;;;;;;15.38;80.03;97815.74;1753865;80;21049;-61
2022/07/12 06:34:47;;;;;;;2.55;2.00;;;;;;;15.45;78.73;97819.52;1759159;80;21120;-63
2022/07/12 06:37:14;;;;;;;3.62;1.55;;;;;;;15.50;78.33;97823.94;1809905;78;20941;-62
2022/07/12 06:39:41;;;;;;;4.53;2.37;;;;;;;15.50;77.73;97821.24;1809863;78;20871;-61
2022/07/12 06:42:08;;;;;;;3.05;2.30;;;;;;;15.47;77.76;97819.21;1816477;77;20910;-63
2022/07/12 06:44:35;;;;;;;3.37;2.00;;;;;;;15.42;77.71;97826.11;1824361;77;20885;-63
2022/07/12 06:47:01;;;;;;;3.15;2.00;;;;;;;15.39;77.59;97822.16;1779965;80;22020;-61
2022/07/12 06:49:30;;;;;;;2.92;1.62;;;;;;;15.40;77.32;97825.65;1780777;79;21024;-62
2022/07/12 06:51:56;;;;;;;3.40;1.77;;;;;;;15.37;76.61;97822.23;1821568;77;20943;-61
2022/07/12 06:54:23;;;;;;;3.83;1.98;;;;;;;15.32;77.11;97815.67;1811448;77;21066;-61
2022/07/12 06:56:49;;;;;;;3.40;1.72;;;;;;;15.28;76.72;97820.14;1826815;77;20898;-62
2022/07/12 06:59:15;;;;;;;2.50;2.00;;;;;;;15.26;76.95;97814.28;1828646;77;21506;-63
2022/07/12 07:01:43;;;;;;;4.00;1.40;;;;;;;15.29;77.04;97809.56;1844445;77;21382;-61
2022/07/12 07:04:11;;;;;;;3.75;1.70;;;;;;;15.35;77.02;97812.34;1820534;77;20943;-61
2022/07/12 07:06:41;;;;;;;3.02;1.60;;;;;;;15.42;76.92;97828.81;1839130;77;20985;-61
2022/07/12 07:09:16;;;;;;;2.85;1.75;;;;;;;15.47;76.21;97824.61;1831560;77;21064;-61
2022/07/12 07:11:53;;;;;;;2.45;1.67;;;;;;;15.51;76.17;97815.53;1757595;80;21010;-63
2022/07/12 07:14:24;;;;;;;3.10;1.60;;;;;;;15.57;76.50;97820.17;1752338;80;20900;-61
2022/07/12 07:16:55;;;;;;;2.95;1.60;;;;;;;15.69;75.96;97810.81;1781735;80;20853;-61
2022/07/12 07:19:26;;;;;;;3.42;1.60;;;;;;;15.78;75.90;97802.09;1785937;79;21487;-62
2022/07/12 07:21:55;;;;;;;4.62;1.55;;;;;;;15.94;76.00;97802.32;1830750;77;20920;-60
2022/07/12 07:24:22;;;;;;;5.15;1.37;;;;;;;16.08;74.06;97798.23;1823830;77;21227;-63
2022/07/12 07:26:49;;;;;;;3.30;1.45;;;;;;;16.15;74.06;97797.70;1809782;78;20878;-63
2022/07/12 07:32:01;;;;;;;2.80;1.30;;;;;;;16.37;74.05;97798.13;1835667;77;20974;-61
2022/07/12 07:34:28;;;;;;;1.77;1.62;;;;;;;16.47;74.06;97800.19;1809709;77;20979;-61
2022/07/12 07:36:57;;;;;;;2.08;1.55;;;;;;;16.54;73.51;97803.17;1826730;78;21641;-64
2022/07/12 07:39:23;;;;;;;1.87;1.20;;;;;;;16.57;73.20;97804.66;1843031;77;20900;-64
2022/07/12 07:41:50;;;;;;;1.42;1.30;;;;;;;16.60;72.41;97812.67;1823201;77;20911;-63
2022/07/12 07:44:16;;;;;;;2.65;1.32;;;;;;;16.50;72.03;97802.23;1805834;77;20967;-61
2022/07/12 07:46:43;;;;;;;1.62;1.35;;;;;;;16.44;73.38;97812.45;1821392;77;21332;-61
2022/07/12 07:49:09;;;;;;;5.42;1.60;;;;;;;16.52;73.04;97802.72;1850833;77;22037;-60
2022/07/12 07:51:36;;;;;;;2.67;1.30;;;;;;;16.61;72.21;97811.53;1819536;78;20925;-61
2022/07/12 07:54:03;;;;;;;2.95;1.30;;;;;;;16.63;71.98;97812.02;1814914;78;20912;-63
2022/07/12 07:56:30;;;;;;;2.75;1.20;;;;;;;16.61;70.98;97812.88;1823128;77;21070;-63
2022/07/12 07:58:56;;;;;;;5.47;1.20;;;;;;;16.58;71.08;97813.57;1763099;80;21533;-63
2022/07/12 08:02:05;;;;;;;2.83;1.40;;;;;;;16.55;71.67;97811.52;1758488;80;21111;-63
2022/07/12 08:03:54;;;;;;;4.25;1.17;;;;;;;16.60;71.70;97809.41;1748758;80;20976;-62
2022/07/12 08:06:20;;;;;;;1.65;1.00;;;;;;;16.65;70.90;97805.70;1752605;80;21024;-65
2022/07/12 08:08:47;;;;;;;2.12;1.17;;;;;;;16.60;69.98;97797.80;1766732;80;21000;-64
2022/07/12 08:11:14;;;;;;;1.50;0.80;;;;;;;16.53;69.55;97799.70;1751571;80;21137;-61
2022/07/12 08:13:42;;;;;;;1.20;0.70;;;;;;;16.49;69.49;97799.32;1773251;79;21030;-61
2022/07/12 08:16:09;;;;;;;1.45;1.00;;;;;;;16.49;69.23;97802.02;1805042;77;21086;-62
2022/07/12 08:18:43;;;;;;;1.87;0.95;;;;;;;16.55;69.71;97789.89;1812466;77;21502;-61
2022/07/12 08:21:11;;;;;;;;;;;;;;;16.66;69.60;97789.69;1833150;77;21045;-62
2022/07/12 08:23:38;;;;;;;2.25;0.98;;;;;;;16.76;68.60;97788.72;1817464;77;20129;-62
2022/07/12 08:26:05;;;;;;;1.77;0.80;;;;;;;16.83;67.76;97786.26;1775090;80;21107;-63
2022/07/12 08:28:32;;;;;;;1.67;0.95;;;;;;;16.91;68.20;97790.00;1797141;79;21269;-63
2022/07/12 08:30:58;;;;;;;1.20;0.80;;;;;;;17.04;67.46;97788.88;1745303;80;21087;-64
2022/07/12 08:33:25;;;;;;;1.82;0.90;;;;;;;17.18;68.72;97783.13;1780085;79;21007;-63
2022/07/12 08:35:52;;;;;;;0.82;0.80;;;;;;;17.34;67.00;97783.47;1773241;79;21121;-61
2022/07/12 08:38:18;;;;;;;2.50;0.78;;;;;;;17.46;66.21;97791.59;1764779;79;21716;-62
2022/07/12 08:40:45;;;;;;;2.80;0.70;;;;;;;17.55;64.34;97790.94;1775430;79;21000;-61
2022/07/12 08:43:15;;;;;;;3.80;0.95;;;;;;;17.62;64.37;97791.16;1752360;80;21098;-61
2022/07/12 08:45:42;;;;;;;2.45;0.90;;;;;;;17.78;64.51;97785.05;1751159;80;21110;-61
2022/07/12 08:48:09;;;;;;;1.82;0.70;;;;;;;17.90;63.03;97787.75;1788742;78;21154;-63
2022/07/12 08:50:36;;;;;;;3.10;1.00;;;;;;;17.97;62.57;97789.31;1780074;79;21173;-61
2022/07/12 08:53:03;;;;;;;1.07;0.82;;;;;;;18.07;63.02;97776.61;1743468;79;21134;-62
2022/07/12 08:55:34;;;;;;;1.55;0.70;;;;;;;18.19;62.52;97790.13;1760879;77;21082;-61
2022/07/12 08:58:06;;;;;;;1.50;0.70;;;;;;;18.21;60.71;97785.15;1819751;77;21007;-62
2022/07/12 09:00:33;;;;;;;1.00;0.70;;;;;;;18.09;61.16;97791.98;1826191;77;21023;-61
2022/07/12 09:03:02;;;;;;;2.12;0.80;;;;;;;17.99;60.39;97797.32;1818698;77;21126;-59
2022/07/12 09:05:31;;;;;;;1.00;0.70;;;;;;;17.86;60.24;97800.38;1820699;77;21670;-62
2022/07/12 09:08:07;;;;;;;2.52;0.90;;;;;;;17.68;60.14;97789.81;1823181;77;21675;-61
2022/07/12 09:10:35;;;;;;;1.75;0.78;;;;;;;17.56;61.17;97792.53;1821977;77;21057;-61
2022/07/12 09:13:01;;;;;;;1.85;0.90;;;;;;;17.45;61.94;97799.48;1819531;77;21165;-60
2022/07/12 09:15:30;;;;;;;3.80;0.90;;;;;;;17.42;62.76;97791.27;1817928;77;21235;-62
2022/07/12 09:18:03;;;;;;;1.90;0.90;;;;;;;17.50;62.66;97797.91;1821054;77;21064;-61
2022/07/12 09:20:39;;;;;;;4.72;1.00;;;;;;;17.60;62.17;97788.00;1814462;77;21098;-61
2022/07/12 09:23:10;;;;;;;3.35;1.15;;;;;;;17.73;62.13;97786.84;1823387;77;21158;-62
2022/07/12 09:25:45;;;;;;;1.10;0.85;;;;;;;17.80;62.07;97796.33;1812641;77;21116;-63
2022/07/12 09:28:11;;;;;;;2.25;1.05;;;;;;;17.83;62.02;97788.89;1809843;78;21070;-62
2022/07/12 09:30:50;;;;;;;2.12;0.80;;;;;;;17.89;61.66;97778.03;1817111;77;21361;-61
2022/07/12 09:36:17;;;;;;;2.00;1.07;;;;;;;17.98;61.42;97773.26;1750713;79;21064;-63
2022/07/12 09:38:54;;;;;;;1.47;1.00;;;;;;;17.82;61.31;97788.66;1737451;80;21071;-62
2022/07/12 09:41:23;;;;;;;1.85;0.95;;;;;;;17.69;61.59;97783.81;1827510;77;21772;-61
2022/07/12 09:43:51;;;;;;;1.72;1.12;;;;;;;17.55;61.37;97796.36;1814942;77;21045;-62
2022/07/12 09:46:17;;;;;;;1.95;0.98;;;;;;;17.37;65.22;97803.11;1767273;79;21011;-61
2022/07/12 09:48:45;;;;;;;1.77;0.93;;;;;;;17.05;67.13;97809.41;1782443;78;21134;-61
2022/07/12 09:51:14;;;;;;;4.00;1.17;;;;;;;16.74;68.41;97809.11;1775294;79;21068;-63
2022/07/12 09:53:47;;;;;;;2.50;1.37;;;;;;;16.55;69.08;97808.82;1748613;80;21253;-63
2022/07/12 09:56:16;;;;;;;7.30;1.32;;;;;;;16.53;70.07;97801.61;1786802;79;21051;-61
2022/07/12 09:59:01;;;;;;;1.62;1.20;;;;;;;16.51;71.82;97805.18;1777079;79;20972;-62
2022/07/12 10:01:25;;;;;;;1.60;1.30;;;;;;;16.52;71.01;97801.37;1762956;80;21122;-61
2022/07/12 10:03:52;;;;;;;1.75;1.22;;;;;;;16.68;72.14;97803.67;1763029;80;21118;-61
2022/07/12 10:06:30;;;;;;;4.75;1.50;;;;;;;16.95;71.74;97793.60;1764561;79;21110;-61
2022/07/12 10:08:57;;;;;;;1.85;1.40;;;;;;;17.30;69.63;97783.14;1758972;79;21079;-61
2022/07/12 10:11:24;;;;;;;1.45;1.10;;;;;;;17.71;70.04;97780.22;1759860;80;20946;-63
2022/07/12 10:13:51;;;;;;;1.10;1.00;;;;;;;18.09;68.45;97766.24;1779860;78;20983;-61
2022/07/12 10:16:26;;;;;;;1.35;1.10;;;;;;;18.27;64.53;97762.89;1775590;79;21088;-61
2022/07/12 10:19:35;;;;;;;1.12;0.80;;;;;;;18.27;61.38;97772.94;1778784;79;21265;-62
2022/07/12 10:22:00;;;;;;;2.17;1.00;;;;;;;18.15;62.28;97768.92;1756446;80;21102;-61
2022/07/12 10:24:45;;;;;;;4.10;1.20;;;;;;;18.06;61.03;97780.47;1775744;79;21564;-62
2022/07/12 10:27:21;;;;;;;1.75;1.22;;;;;;;17.95;61.39;97772.02;1766469;79;21556;-62
2022/07/12 10:29:48;;;;;;;;;;;;;;;17.92;61.84;97771.38;1779442;79;21060;-63
2022/07/12 10:32:25;;;;;;;3.17;1.20;;;;;;;17.89;61.22;97773.41;1777534;79;20629;-61
2022/07/12 10:35:06;;;;;;;3.42;1.37;;;;;;;17.76;63.30;97798.36;1780298;79;21046;-61
2022/07/12 10:37:35;;;;;;;1.72;1.20;;;;;;;17.38;69.00;97810.09;1763523;80;21159;-62
2022/07/12 10:40:19;;;;;;;2.55;1.50;;;;;;;16.58;73.02;97807.58;1766578;80;21119;-64
2022/07/12 10:43:08;;;;;;;;;;;;;;;16.06;76.24;97808.56;1759114;80;21067;-62
2022/07/12 10:45:41;;;;;;;3.60;2.10;;;;;;;15.85;78.25;97799.66;1745691;80;20145;-63
2022/07/12 10:48:19;;;;;;;2.87;1.80;;;;;;;15.80;80.32;97792.33;1747947;80;21153;-64
2022/07/12 10:50:58;;;;;;;2.65;1.82;;;;;;;15.93;81.38;97789.37;1820945;77;21106;-62
2022/07/12 10:53:34;;;;;;;;;;;;;;;16.27;82.92;97785.02;1769282;80;21063;-61
2022/07/12 10:56:22;;;;;;;2.25;1.50;;;;;;;16.60;80.69;97781.58;1773461;79;20445;-65
2022/07/12 10:58:53;;;;;;;2.62;1.60;;;;;;;16.81;79.58;97778.25;1748527;80;21414;-63
2022/07/12 11:01:30;;;;;;;3.72;1.40;;;;;;;16.93;79.40;97776.92;1758534;79;21482;-63
2022/07/12 11:04:10;;;;;;;2.22;1.30;;;;;;;16.94;77.94;97778.48;1783390;79;21026;-61
2022/07/12 11:06:39;;;;;;;1.95;1.50;;;;;;;16.91;77.92;97785.35;1771010;80;21059;-62
2022/07/12 11:09:12;;;;;;;2.42;1.50;;;;;;;16.95;78.40;97780.08;1749406;80;21175;-62
2022/07/12 11:11:45;;;;;;;3.05;1.45;;;;;;;16.98;75.89;97782.12;1748570;80;21060;-62
2022/07/12 11:14:22;;;;;;;2.45;1.57;;;;;;;17.07;72.34;97780.86;1764260;80;20977;-61
2022/07/12 11:16:49;;;;;;;3.47;2.02;;;;;;;17.27;71.65;97773.78;1760057;80;20971;-61
2022/07/12 11:19:16;;;;;;;3.87;1.20;;;;;;;17.55;69.54;97773.34;1761817;80;21070;-62
2022/07/12 11:21:45;;;;;;;2.80;1.27;;;;;;;17.78;65.14;97774.42;1747408;80;21067;-61
2022/07/12 11:24:21;;;;;;;2.45;1.15;;;;;;;17.97;63.74;97771.70;1749166;80;21968;-61
2022/07/12 11:26:48;;;;;;;2.00;0.93;;;;;;;18.11;61.60;97761.27;1817874;77;21450;-62
2022/07/12 11:29:14;;;;;;;0.68;0.68;;;;;;;18.21;60.21;97764.81;1814299;77;20955;-63
2022/07/12 11:31:41;;;;;;;3.30;1.00;;;;;;;18.29;62.10;97761.19;1761573;79;21438;-63
2022/07/12 11:34:07;;;;;;;3.83;1.07;;;;;;;18.40;62.73;97761.69;1780295;79;21571;-62
2022/07/12 11:36:34;;;;;;;2.00;1.10;;;;;;;18.53;61.68;97762.47;1774951;80;21125;-63
2022/07/12 11:39:36;;;;;;;3.27;1.10;;;;;;;18.64;60.76;97751.87;1729276;80;20982;-62
2022/07/12 11:42:04;;;;;;;2.20;1.20;;;;;;;18.80;60.60;97745.34;1745889;81;21517;-63
2022/07/12 11:44:45;;;;;;;3.62;1.52;;;;;;;18.80;59.46;97750.77;1740784;80;21071;-62
2022/07/12 11:47:13;;;;;;;3.27;1.35;;;;;;;18.72;58.46;97751.73;1745353;81;21074;-62
2022/07/12 11:49:50;;;;;;;2.02;1.30;;;;;;;18.69;59.20;97746.20;1737636;81;21190;-63